Time;durP1;ratioP1;P1;durP2;ratioP2;P2;SDS_P1;SDS_P2;PMS_P1;PMS_P2;Temp;Humidity;BMP_temperature;BMP_pressure;BME280_temperature;BME280_humidity;BME280_pressure;Samples;Min_cycle;Max_cycle;Signal;HPM_P1;HPM_P2
2021/01/10 00:01:47;;;;;;;20.00;16.75;;;;;;;5.53;71.13;100491.28;2466325;79;25423;-80
2021/01/10 00:05:38;;;;;;;20.97;16.60;;;;;;;5.54;71.10;100490.48;2438104;80;25669;-79
2021/01/10 00:09:08;;;;;;;25.50;18.30;;;;;;;5.52;71.13;100486.93;2393659;82;25674;-79
2021/01/10 00:12:29;;;;;;;21.68;17.57;;;;;;;5.53;71.11;100492.16;2368964;83;25601;-79
2021/01/10 00:15:52;;;;;;;22.82;17.60;;;;;;;5.52;71.12;100495.56;2324200;85;25649;-78
2021/01/10 00:20:46;;;;;;;22.60;17.63;;;;;;;5.58;71.16;100498.85;2447232;78;26938;-79
2021/01/10 00:24:08;;;;;;;22.95;18.90;;;;;;;5.51;71.14;100497.69;2449021;80;25640;-79
2021/01/10 00:27:55;;;;;;;26.00;17.40;;;;;;;5.51;71.15;100502.86;2448444;80;25409;-79
2021/01/10 00:35:12;;;;;;;;;;;;;;;5.51;71.17;100514.91;2268518;85;26087;-80
2021/01/10 00:38:44;;;;;;;26.43;19.10;;;;;;;5.55;71.24;100505.17;2526084;76;25784;-79
2021/01/10 00:42:08;;;;;;;24.75;19.00;;;;;;;5.48;71.25;100516.94;2506508;78;25854;-79
2021/01/10 00:45:39;;;;;;;24.43;18.67;;;;;;;5.49;71.25;100520.41;2500782;77;25597;-79
2021/01/10 00:49:14;;;;;;;24.70;18.40;;;;;;;5.48;71.26;100524.70;2463658;77;25648;-79
2021/01/10 00:52:42;;;;;;;23.07;17.62;;;;;;;5.49;71.27;100522.98;2468639;77;26191;-80
2021/01/10 00:56:14;;;;;;;27.75;19.12;;;;;;;5.51;71.26;100539.06;2454533;78;25974;-80
2021/01/10 00:59:43;;;;;;;24.98;18.30;;;;;;;5.49;71.28;100531.63;2454957;78;26004;-79
2021/01/10 01:03:08;;;;;;;23.15;18.07;;;;;;;5.50;71.27;100534.71;2482723;78;25575;-78
2021/01/10 01:06:32;;;;;;;27.98;18.57;;;;;;;5.51;71.29;100536.89;2484454;79;25329;-79
2021/01/10 01:09:59;;;;;;;25.88;18.85;;;;;;;5.50;71.29;100539.88;2482659;78;25696;-78
2021/01/10 01:13:20;;;;;;;26.95;18.27;;;;;;;5.51;71.30;100540.77;2483603;78;25860;-79
2021/01/10 01:16:44;;;;;;;27.80;18.85;;;;;;;5.49;71.29;100531.63;2477000;79;26026;-79
2021/01/10 01:20:07;;;;;;;28.50;19.75;;;;;;;5.50;71.30;100535.09;2484967;79;25556;-79
2021/01/10 01:23:28;;;;;;;29.37;19.20;;;;;;;5.49;71.29;100535.51;2485739;78;25621;-83
2021/01/10 01:26:54;;;;;;;26.77;19.60;;;;;;;5.48;71.32;100534.16;2484453;79;25478;-80
2021/01/10 01:35:46;;;;;;;23.12;17.42;;;;;;;5.47;71.30;100538.45;2406342;78;25559;-79
2021/01/10 01:39:45;;;;;;;27.42;19.32;;;;;;;5.46;71.32;100539.23;2288974;84;25940;-84
2021/01/10 01:43:40;;;;;;;27.90;18.45;;;;;;;5.44;71.36;100546.94;2115236;91;25848;-79
2021/01/10 01:47:46;;;;;;;27.40;18.90;;;;;;;5.49;71.38;100551.43;2601255;76;25522;-78
2021/01/10 01:51:08;;;;;;;31.97;19.42;;;;;;;5.42;71.36;100547.27;2560316;76;25657;-78
2021/01/10 01:55:15;;;;;;;26.52;18.70;;;;;;;5.42;71.38;100558.02;2463250;80;25673;-78
2021/01/10 01:59:13;;;;;;;31.65;19.75;;;;;;;5.42;71.39;100561.48;2406226;81;25720;-79
2021/01/10 02:02:46;;;;;;;26.05;18.62;;;;;;;5.41;71.38;100566.59;2406969;81;25649;-78
2021/01/10 02:06:49;;;;;;;26.77;19.60;;;;;;;5.41;71.42;100567.48;2404873;82;25796;-78
2021/01/10 02:21:20;;;;;;;28.77;18.80;;;;;;;5.40;71.50;100568.68;2436545;80;27582;-81
2021/01/10 02:24:44;;;;;;;29.18;19.82;;;;;;;5.33;71.50;100571.79;2428036;80;25758;-80
2021/01/10 02:28:09;;;;;;;30.60;20.08;;;;;;;5.34;71.48;100580.94;2433267;80;25779;-80
2021/01/10 02:31:33;;;;;;;28.65;19.70;;;;;;;5.34;71.48;100581.34;2436739;80;25393;-80
2021/01/10 02:34:59;;;;;;;31.50;20.72;;;;;;;5.33;71.49;100579.17;2416733;80;25611;-79
2021/01/10 02:38:51;;;;;;;29.40;19.95;;;;;;;5.34;71.50;100576.17;2432264;80;25658;-79
2021/01/10 02:42:27;;;;;;;28.67;19.90;;;;;;;5.35;71.54;100585.69;2422758;80;25570;-80
2021/01/10 02:58:27;;;;;;;31.27;20.93;;;;;;;5.36;71.62;100586.16;2507582;78;27556;-80
2021/01/10 03:02:12;;;;;;;30.75;19.55;;;;;;;5.31;71.61;100584.66;2440063;80;25793;-80
2021/01/10 03:10:29;;;;;;;31.67;20.90;;;;;;;5.38;71.66;100583.25;2501766;79;25532;-80
2021/01/10 03:14:38;;;;;;;31.30;20.25;;;;;;;5.32;71.66;100581.25;2362328;81;25657;-79
2021/01/10 03:18:44;;;;;;;31.63;20.43;;;;;;;5.37;71.67;100572.44;2458223;79;28139;-79
2021/01/10 03:22:14;;;;;;;33.67;20.75;;;;;;;5.32;71.69;100576.08;2456813;80;25612;-80
2021/01/10 03:25:44;;;;;;;31.50;20.43;;;;;;;5.33;71.70;100574.38;2456787;80;25590;-80
2021/01/10 03:29:26;;;;;;;33.98;21.45;;;;;;;5.33;71.70;100571.41;2457292;79;25625;-81
2021/01/10 03:55:27;;;;;;;35.23;22.23;;;;;;;5.34;71.90;100576.17;2552563;75;27561;-80
2021/01/10 03:59:11;;;;;;;35.13;21.77;;;;;;;5.28;71.89;100576.75;2399377;80;25716;-79
2021/01/10 04:13:46;;;;;;;37.63;21.70;;;;;;;5.33;71.94;100587.30;2560921;76;26847;-79
2021/01/10 04:17:43;;;;;;;35.45;22.93;;;;;;;5.29;71.93;100579.81;2363044;81;25772;-80
2021/01/10 04:22:16;;;;;;;38.23;22.63;;;;;;;5.34;71.93;100578.34;2497409;78;27939;-79
2021/01/10 04:30:16;;;;;;;40.63;21.97;;;;;;;5.31;71.93;100578.20;2451536;79;26084;-80
2021/01/10 04:34:40;;;;;;;33.20;21.42;;;;;;;5.31;71.95;100576.02;2399430;81;25555;-79
2021/01/10 04:42:24;;;;;;;36.83;23.20;;;;;;;5.33;71.94;100592.47;2219996;88;26011;-80
2021/01/10 05:11:38;;;;;;;33.83;20.93;;;;;;;5.33;72.08;100602.81;2549003;77;25491;-84
2021/01/10 05:26:05;;;;;;;40.17;22.90;;;;;;;5.33;72.14;100605.40;2365766;82;25566;-79
2021/01/10 05:29:27;;;;;;;39.20;22.75;;;;;;;5.28;72.09;100610.77;2373236;82;25664;-80
2021/01/10 05:33:05;;;;;;;38.98;22.75;;;;;;;5.29;72.08;100608.25;2380873;82;25383;-79
2021/01/10 05:36:33;;;;;;;44.70;23.77;;;;;;;5.30;72.07;100606.16;2386759;82;25681;-79
2021/01/10 05:40:28;;;;;;;36.95;21.57;;;;;;;5.32;72.08;100615.27;2350356;82;25638;-79
2021/01/10 05:44:17;;;;;;;33.75;22.35;;;;;;;5.32;72.06;100612.27;2381271;82;25439;-79
2021/01/10 05:47:39;;;;;;;36.15;21.87;;;;;;;5.32;72.09;100617.44;2377178;82;25678;-79
2021/01/10 05:51:04;;;;;;;35.83;22.93;;;;;;;5.33;72.08;100623.50;2375595;82;25609;-79
2021/01/10 05:55:01;;;;;;;41.95;22.55;;;;;;;5.32;72.07;100621.32;2356389;82;25645;-79
2021/01/10 06:31:38;;;;;;;38.73;21.80;;;;;;;5.33;72.24;100659.69;2406550;81;28744;-80
2021/01/10 06:35:41;;;;;;;38.23;22.15;;;;;;;5.28;72.21;100658.19;2374387;83;25644;-80
2021/01/10 06:39:18;;;;;;;39.92;22.93;;;;;;;5.29;72.20;100659.06;2324293;84;25680;-80
2021/01/10 06:42:45;;;;;;;34.20;21.73;;;;;;;5.30;72.18;100662.12;2313229;85;25664;-80
2021/01/10 06:46:06;;;;;;;38.38;22.60;;;;;;;5.32;72.20;100669.55;2312962;84;25661;-79
2021/01/10 06:49:28;;;;;;;36.40;23.32;;;;;;;5.33;72.19;100675.20;2309402;84;25747;-79
2021/01/10 06:52:50;;;;;;;36.40;23.15;;;;;;;5.33;72.19;100677.41;2311894;85;25643;-80
2021/01/10 06:56:35;;;;;;;45.48;22.48;;;;;;;5.35;72.18;100685.22;2287617;85;25704;-79
2021/01/10 07:10:33;;;;;;;34.23;20.30;;;;;;;5.39;72.26;100681.97;2496490;78;25898;-79
2021/01/10 07:14:27;;;;;;;32.30;20.30;;;;;;;5.35;72.22;100681.34;2423485;80;25596;-80
2021/01/10 07:18:07;;;;;;;42.03;22.13;;;;;;;5.35;72.21;100689.09;2398704;82;25756;-83
2021/01/10 07:32:37;;;;;;;28.97;19.67;;;;;;;5.42;72.24;100692.47;2489376;78;25864;-79
2021/01/10 07:36:00;;;;;;;35.45;21.57;;;;;;;5.37;72.21;100704.30;2443634;79;25719;-79
2021/01/10 07:39:39;;;;;;;32.10;19.48;;;;;;;5.40;72.21;100709.21;2445170;79;25627;-79
2021/01/10 07:44:04;;;;;;;33.77;20.77;;;;;;;5.47;72.19;100705.23;2556714;76;27899;-80
2021/01/10 07:47:59;;;;;;;38.50;20.90;;;;;;;5.45;72.19;100715.89;2464047;77;25846;-80
2021/01/10 07:52:07;;;;;;;41.87;26.33;;;;;;;5.54;72.18;100718.06;2457994;78;32894;-80
2021/01/10 07:55:41;;;;;;;33.90;21.20;;;;;;;5.63;72.14;100715.48;2480303;78;25815;-80
2021/01/10 08:04:47;;;;;;;;;;;;;;;;;;;;;
2021/01/10 08:13:40;;;;;;;32.20;21.02;;;;;;;5.67;71.98;100744.59;2393773;81;25924;-80
2021/01/10 08:17:34;;;;;;;28.85;19.80;;;;;;;5.67;71.97;100754.06;2402478;81;25712;-79
2021/01/10 08:21:38;;;;;;;32.03;19.32;;;;;;;5.67;71.95;100756.23;2402133;81;25496;-80
2021/01/10 08:36:45;;;;;;;30.07;19.60;;;;;;;5.74;71.94;100767.77;2429469;79;25677;-80
2021/01/10 08:40:41;;;;;;;29.95;19.23;;;;;;;5.71;71.94;100768.03;2395545;80;25601;-81
2021/01/10 08:55:36;;;;;;;29.57;19.57;;;;;;;5.79;71.94;100779.22;2491476;79;25543;-79
2021/01/10 08:59:07;;;;;;;29.18;19.37;;;;;;;5.75;71.92;100774.70;2430389;80;25649;-79
2021/01/10 09:02:38;;;;;;;32.48;20.50;;;;;;;5.78;71.92;100777.86;2444026;80;25679;-81
2021/01/10 09:10:32;;;;;;;32.17;21.20;;;;;;;5.82;71.93;100774.19;2435161;80;26165;-80
2021/01/10 09:14:12;;;;;;;28.85;19.20;;;;;;;5.85;71.89;100781.23;2431543;80;25713;-80
2021/01/10 09:18:11;;;;;;;28.45;19.77;;;;;;;5.85;71.85;100779.52;2413300;80;25868;-80
2021/01/10 09:21:47;;;;;;;29.63;19.82;;;;;;;5.88;71.86;100787.84;2441493;80;26177;-81
2021/01/10 09:29:03;;;;;;;27.40;18.45;;;;;;;5.87;71.82;100794.73;2437029;80;25973;-79
2021/01/10 09:32:39;;;;;;;30.52;19.98;;;;;;;5.88;71.84;100796.91;2437446;80;25655;-81
2021/01/10 09:37:07;;;;;;;27.62;18.90;;;;;;;5.90;71.86;100797.44;2447272;80;26137;-84
2021/01/10 09:42:49;;;;;;;33.37;20.60;;;;;;;6.00;71.81;100795.34;2455752;78;26983;-81
2021/01/10 09:46:53;;;;;;;27.82;18.45;;;;;;;5.98;71.84;100785.34;2356011;81;26341;-81
2021/01/10 09:50:16;;;;;;;31.07;20.85;;;;;;;6.02;71.83;100785.55;2374104;81;27040;-80
2021/01/10 09:53:38;;;;;;;28.30;19.05;;;;;;;6.05;71.79;100784.41;2364049;80;26163;-79
2021/01/10 10:01:38;;;;;;;31.40;19.17;;;;;;;6.10;71.77;100784.20;2342453;81;25765;-81
2021/01/10 10:09:57;;;;;;;29.27;19.77;;;;;;;6.17;71.80;100779.33;2374815;81;25744;-82
2021/01/10 10:13:27;;;;;;;30.00;19.67;;;;;;;6.22;71.79;100783.03;2423712;80;25924;-82
2021/01/10 10:25:57;;;;;;;32.28;18.55;;;;;;;6.76;75.60;100782.52;2304000;80;25754;-81
2021/01/10 10:30:09;;;;;;;29.15;19.20;;;;;;;6.77;74.84;100781.28;2157245;88;26288;-81
2021/01/10 10:33:55;;;;;;;29.52;19.05;;;;;;;6.75;74.60;100782.93;2148734;89;25938;-81
2021/01/10 10:37:18;;;;;;;31.68;18.57;;;;;;;6.74;74.41;100786.31;2146105;89;26332;-79
2021/01/10 10:40:40;;;;;;;30.17;18.02;;;;;;;6.73;74.19;100781.97;2168349;88;25721;-80
2021/01/10 10:44:01;;;;;;;39.42;20.57;;;;;;;7.17;77.15;100781.75;2170961;90;25884;-80
2021/01/10 10:47:42;;;;;;;39.83;19.00;;;;;;;7.25;75.68;100773.88;2234170;83;25721;-81
2021/01/10 10:51:04;;;;;;;34.78;18.57;;;;;;;7.19;74.92;100778.83;2313523;83;25818;-79
2021/01/10 10:54:29;;;;;;;32.88;18.05;;;;;;;7.16;74.73;100775.22;2363747;83;25689;-80
2021/01/10 10:57:51;;;;;;;28.85;17.82;;;;;;;7.17;74.53;100774.39;2357458;83;25651;-79
2021/01/10 11:01:12;;;;;;;30.75;18.55;;;;;;;7.17;74.30;100778.28;2361144;82;25784;-81
2021/01/10 11:04:42;;;;;;;32.78;17.75;;;;;;;7.18;74.13;100776.16;2353400;83;25816;-80
2021/01/10 11:08:04;;;;;;;23.45;14.95;;;;;;;7.19;73.96;100779.22;2306287;83;26297;-80
2021/01/10 11:11:43;;;;;;;26.57;14.70;;;;;;;7.19;73.94;100776.23;2307291;83;25786;-79
2021/01/10 11:15:08;;;;;;;22.13;13.50;;;;;;;7.22;73.87;100775.08;2347349;82;26174;-79
2021/01/10 11:18:41;;;;;;;24.37;14.45;;;;;;;7.27;74.27;100768.36;2301713;85;26477;-82
2021/01/10 11:22:05;;;;;;;20.57;13.62;;;;;;;7.30;74.02;100774.10;2313475;83;26090;-79
2021/01/10 11:25:35;;;;;;;27.20;15.25;;;;;;;7.32;74.78;100775.95;2313084;83;26378;-79
2021/01/10 11:29:04;;;;;;;27.65;14.80;;;;;;;7.39;74.82;100778.78;2337973;83;25705;-79
2021/01/10 11:32:25;;;;;;;27.70;15.72;;;;;;;7.39;74.38;100778.78;2361593;83;25759;-80
2021/01/10 11:35:47;;;;;;;25.68;15.63;;;;;;;7.37;74.07;100777.44;2306133;84;25895;-80
2021/01/10 11:39:15;;;;;;;28.42;16.73;;;;;;;7.34;73.85;100773.41;2308052;85;25460;-81
2021/01/10 11:42:36;;;;;;;29.55;17.45;;;;;;;7.35;74.01;100773.88;2299942;84;25801;-81
2021/01/10 11:46:04;;;;;;;25.25;15.45;;;;;;;7.32;73.72;100773.36;2308742;84;25641;-80
2021/01/10 11:49:35;;;;;;;23.40;15.08;;;;;;;7.32;73.58;100771.14;2364179;83;25637;-79
2021/01/10 11:53:05;;;;;;;25.60;15.30;;;;;;;7.34;73.66;100775.59;2361671;83;25692;-79
2021/01/10 11:56:27;;;;;;;27.10;16.27;;;;;;;7.37;74.07;100773.55;2300779;85;25915;-80
2021/01/10 11:59:48;;;;;;;28.15;17.67;;;;;;;7.41;74.20;100767.66;2294743;85;26311;-80
2021/01/10 12:03:11;;;;;;;40.90;20.82;;;;;;;7.43;74.04;100776.81;2324340;84;25439;-80
2021/01/10 12:07:12;;;;;;;42.15;22.95;;;;;;;7.42;73.75;100772.01;2303105;83;25808;-81
2021/01/10 12:11:25;;;;;;;;;;;;;;;;;;;;;
2021/01/10 12:15:15;;;;;;;52.10;25.62;;;;;;;7.12;72.72;100769.40;2259133;84;25794;-81
2021/01/10 12:19:13;;;;;;;48.63;25.92;;;;;;;6.96;72.66;100768.75;2124829;90;26168;-79
2021/01/10 12:22:53;;;;;;;48.45;24.80;;;;;;;6.82;72.62;100764.66;2114493;90;25798;-80
2021/01/10 12:26:42;;;;;;;44.50;23.70;;;;;;;6.73;72.58;100759.05;2086633;92;25683;-80
2021/01/10 12:34:01;;;;;;;49.55;25.43;;;;;;;6.58;72.58;100764.03;2108089;90;26163;-80
2021/01/10 12:38:19;;;;;;;50.50;25.68;;;;;;;6.48;72.48;100760.54;2072456;92;26241;-80
2021/01/10 12:52:40;;;;;;;59.33;29.03;;;;;;;6.24;72.52;100768.03;2450118;78;25692;-82
2021/01/10 13:00:12;;;;;;;67.05;30.48;;;;;;;6.08;72.49;100767.73;2433473;77;25935;-84
2021/01/10 13:04:16;;;;;;;63.00;28.67;;;;;;;6.10;72.52;100769.96;2393150;80;26093;-85
2021/01/10 13:07:59;;;;;;;64.58;32.03;;;;;;;6.15;72.52;100768.91;2367591;80;26122;-85
2021/01/10 13:12:11;;;;;;;58.75;28.70;;;;;;;6.18;72.52;100762.59;2358228;80;26243;-84
2021/01/10 13:15:46;;;;;;;64.30;28.67;;;;;;;6.21;72.53;100764.41;2333738;80;26163;-81
2021/01/10 13:19:41;;;;;;;63.10;29.72;;;;;;;6.23;72.55;100765.38;2322607;82;25730;-83
2021/01/10 13:23:03;;;;;;;61.42;29.87;;;;;;;6.25;72.53;100772.41;2301655;83;26091;-83
2021/01/10 13:26:40;;;;;;;63.10;29.20;;;;;;;6.25;72.55;100765.94;2366123;81;25823;-82
2021/01/10 13:30:37;;;;;;;64.35;31.12;;;;;;;6.26;72.54;100763.81;2385279;80;25867;-83
2021/01/10 13:34:39;;;;;;;60.98;28.62;;;;;;;6.27;72.54;100775.94;2363752;81;26291;-84
2021/01/10 13:38:14;;;;;;;59.70;29.15;;;;;;;6.27;72.51;100776.35;2345001;81;26195;-82
2021/01/10 13:51:38;;;;;;;59.30;31.50;;;;;;;6.28;72.49;100788.51;2287348;78;26137;-82
2021/01/10 13:55:08;;;;;;;63.27;31.10;;;;;;;6.29;72.49;100786.39;2282846;84;26460;-84
2021/01/10 13:58:43;;;;;;;65.15;30.72;;;;;;;6.26;72.47;100778.06;2266813;85;25816;-84
2021/01/10 14:02:05;;;;;;;56.75;31.00;;;;;;;6.27;72.46;100785.41;2260864;85;25736;-85
2021/01/10 14:05:51;;;;;;;65.08;31.00;;;;;;;6.28;72.49;100787.21;2255983;85;27154;-82
2021/01/10 14:14:33;;;;;;;66.35;32.10;;;;;;;6.27;72.46;100793.19;2236286;86;26388;-85
2021/01/10 14:17:55;;;;;;;61.88;31.33;;;;;;;6.26;72.46;100789.71;2250708;85;26085;-87
2021/01/10 14:21:49;;;;;;;67.27;31.05;;;;;;;6.27;72.48;100790.59;2254359;85;25710;-85
2021/01/10 14:25:12;;;;;;;68.35;34.08;;;;;;;6.27;72.48;100790.59;2225247;86;26014;-85
2021/01/10 14:28:37;;;;;;;64.62;32.70;;;;;;;6.27;72.49;100781.53;2268080;85;26183;-88
2021/01/10 14:32:13;;;;;;;65.20;31.70;;;;;;;6.27;72.48;100790.18;2257435;85;26143;-85
2021/01/10 14:35:38;;;;;;;68.22;32.35;;;;;;;6.27;72.47;100794.48;2244785;85;26412;-86
2021/01/10 14:39:14;;;;;;;66.90;32.65;;;;;;;6.26;72.45;100793.59;2247919;84;26136;-86
2021/01/10 14:42:36;;;;;;;61.10;32.28;;;;;;;6.27;72.44;100794.48;2246405;85;25776;-87
2021/01/10 14:46:20;;;;;;;59.80;32.10;;;;;;;6.27;72.43;100797.06;2242696;85;26586;-85
2021/01/10 14:49:41;;;;;;;66.70;33.30;;;;;;;6.26;72.44;100796.59;2243402;83;26116;-86
2021/01/10 14:53:35;;;;;;;63.17;31.93;;;;;;;6.26;72.43;100798.77;2154990;90;25872;-85
2021/01/10 14:57:14;;;;;;;62.90;31.47;;;;;;;6.27;72.40;100803.54;2143545;89;26278;-90
2021/01/10 15:00:35;;;;;;;62.58;33.42;;;;;;;6.26;72.40;100803.06;2147496;89;31003;-83
2021/01/10 15:04:00;;;;;;;63.30;32.48;;;;;;;6.25;72.38;100804.78;2141117;89;26191;-85
2021/01/10 15:12:29;;;;;;;65.52;31.70;;;;;;;6.24;72.34;100805.56;2230997;84;35010;-85
2021/01/10 15:16:14;;;;;;;63.80;31.57;;;;;;;6.24;72.33;100813.34;2261861;83;25755;-89
2021/01/10 15:19:42;;;;;;;60.95;33.18;;;;;;;6.22;72.33;100805.92;2309498;78;26010;-86
2021/01/10 15:23:15;;;;;;;59.58;30.08;;;;;;;6.23;72.33;100814.57;2372660;79;26008;-87
2021/01/10 15:26:37;;;;;;;58.63;31.93;;;;;;;6.22;72.30;100813.69;2382454;79;26267;-87
2021/01/10 15:35:10;;;;;;;58.70;30.57;;;;;;;6.23;72.30;100821.92;2381946;80;25955;-85
2021/01/10 15:39:19;;;;;;;64.95;33.28;;;;;;;6.22;72.30;100815.39;2380060;80;26275;-85
2021/01/10 15:42:41;;;;;;;68.00;32.70;;;;;;;6.22;72.29;100817.58;2402923;79;26301;-85
2021/01/10 15:46:26;;;;;;;58.55;31.40;;;;;;;6.23;72.29;100821.92;2405398;79;26087;-86
2021/01/10 15:50:08;;;;;;;57.27;31.33;;;;;;;6.23;72.28;100819.75;2364910;81;25747;-83
2021/01/10 15:53:44;;;;;;;59.83;31.50;;;;;;;6.23;72.26;100819.75;2413950;79;25961;-84
2021/01/10 15:57:07;;;;;;;59.93;31.90;;;;;;;6.23;72.26;100822.34;2393792;78;26336;-88
2021/01/10 16:00:43;;;;;;;58.48;30.60;;;;;;;6.22;72.25;100822.75;2341681;82;26408;-88
2021/01/10 16:04:05;;;;;;;61.80;32.08;;;;;;;6.22;72.25;100822.75;2408204;80;26231;-87
2021/01/10 16:07:41;;;;;;;56.30;30.88;;;;;;;6.23;72.25;100819.34;2334167;80;26276;-86
2021/01/10 16:11:20;;;;;;;54.30;31.35;;;;;;;6.24;72.22;100815.92;2443349;79;26859;-84
2021/01/10 16:14:41;;;;;;;;;;;;;;;6.24;72.21;100817.22;2432731;78;25808;-85
2021/01/10 16:18:10;;;;;;;53.13;30.27;;;;;;;6.24;72.20;100819.80;2448582;78;26068;-86
2021/01/10 16:21:40;;;;;;;58.08;30.45;;;;;;;6.23;72.20;100819.75;2440099;78;25863;-85
2021/01/10 16:25:09;;;;;;;51.55;29.90;;;;;;;6.23;72.18;100815.87;2446560;78;26220;-90
2021/01/10 16:28:37;;;;;;;58.00;32.35;;;;;;;6.23;72.18;100821.05;2415500;79;26360;-91
2021/01/10 16:32:39;;;;;;;52.70;30.08;;;;;;;6.23;72.16;100821.05;2418830;78;26337;-91
2021/01/10 16:36:10;;;;;;;55.65;29.30;;;;;;;6.22;72.14;100822.75;2398984;80;25850;-91
2021/01/10 16:43:10;;;;;;;54.73;29.18;;;;;;;6.23;72.09;100815.87;2392821;79;26086;-85
2021/01/10 16:46:31;;;;;;;54.27;29.30;;;;;;;6.22;72.10;100817.98;2375705;80;25796;-83
2021/01/10 16:50:13;;;;;;;50.10;29.95;;;;;;;6.24;72.08;100824.11;2199817;86;26244;-84
2021/01/10 16:54:20;;;;;;;52.48;29.27;;;;;;;6.22;72.05;100817.58;2190258;86;26103;-83
2021/01/10 16:57:59;;;;;;;50.47;28.30;;;;;;;6.24;72.04;100826.69;2226369;85;26000;-83
2021/01/10 17:06:00;;;;;;;;;;;;;;;;;;;;;
2021/01/10 17:10:01;;;;;;;50.95;28.17;;;;;;;6.20;71.96;100823.48;2407720;80;26132;-84
2021/01/10 17:25:09;;;;;;;47.15;27.40;;;;;;;6.17;71.89;100815.16;2279338;80;26153;-81
2021/01/10 17:29:30;;;;;;;33.67;20.75;;;;;;;6.17;71.89;100818.16;2338146;82;25694;-88
2021/01/10 17:32:18;;;;;;;35.28;20.27;;;;;;;6.33;73.83;100814.20;2331465;82;25958;-90
2021/01/10 17:35:41;;;;;;;39.20;22.17;;;;;;;6.49;73.15;100817.99;2354715;82;25730;-87
2021/01/10 17:39:39;;;;;;;37.20;21.70;;;;;;;6.48;72.72;100812.72;2271119;84;26151;-90
2021/01/10 17:43:01;;;;;;;37.40;21.77;;;;;;;6.44;72.55;100815.98;2229212;86;25818;-88
2021/01/10 17:46:31;;;;;;;41.58;22.50;;;;;;;6.42;72.47;100821.52;2242893;86;26010;-84
2021/01/10 17:49:54;;;;;;;43.15;23.83;;;;;;;6.40;72.42;100817.55;2249201;86;25859;-84
2021/01/10 17:53:19;;;;;;;41.08;22.73;;;;;;;6.36;72.35;100821.70;2246122;86;26400;-85
2021/01/10 17:56:40;;;;;;;36.48;22.22;;;;;;;6.35;72.32;100817.34;2256014;87;26246;-86
2021/01/10 18:00:06;;;;;;;37.17;22.82;;;;;;;6.34;72.27;100815.96;2225121;87;25660;-81
2021/01/10 18:06:48;;;;;;;36.50;23.57;;;;;;;6.29;72.20;100825.23;2339882;83;34852;-83
2021/01/10 18:10:10;;;;;;;44.00;23.77;;;;;;;6.28;72.15;100825.64;2339094;83;35216;-83
2021/01/10 18:13:45;;;;;;;42.85;24.57;;;;;;;6.26;72.12;100818.20;2342124;82;25818;-80
2021/01/10 18:25:42;;;;;;;40.35;23.90;;;;;;;6.23;72.03;100826.22;2354376;79;26122;-89
2021/01/10 18:32:47;;;;;;;41.02;24.10;;;;;;;6.19;71.98;100820.42;2327707;82;25804;-86
2021/01/10 18:40:19;;;;;;;40.52;22.87;;;;;;;6.17;71.91;100819.03;2336443;81;25934;-82
2021/01/10 18:44:12;;;;;;;44.35;25.85;;;;;;;6.16;71.94;100819.86;2337321;81;26214;-82
2021/01/10 18:47:43;;;;;;;43.90;24.25;;;;;;;6.15;71.91;100818.98;2343200;81;25671;-81
2021/01/10 18:59:12;;;;;;;42.30;24.43;;;;;;;6.12;71.80;100827.01;2331948;82;25743;-87
2021/01/10 19:10:39;;;;;;;35.95;23.50;;;;;;;6.09;71.69;100834.20;2345295;81;25868;-82
2021/01/10 19:18:05;;;;;;;42.10;25.30;;;;;;;6.06;71.64;100831.88;2384078;81;25824;-85
2021/01/10 19:21:41;;;;;;;42.43;25.02;;;;;;;6.06;71.61;100832.76;2383635;80;25947;-85
2021/01/10 19:25:32;;;;;;;42.40;25.57;;;;;;;6.05;71.58;100833.99;2361058;81;26022;-86
2021/01/10 19:29:07;;;;;;;43.95;25.60;;;;;;;6.04;71.56;100827.02;2362443;81;25865;-86
2021/01/10 19:37:13;;;;;;;38.35;23.30;;;;;;;6.03;71.52;100824.84;2215819;86;26327;-84
2021/01/10 19:40:42;;;;;;;43.65;25.43;;;;;;;6.01;71.48;100817.84;2216462;86;25953;-83
2021/01/10 19:47:44;;;;;;;41.90;23.77;;;;;;;5.99;71.43;100822.04;2196527;87;35743;-84
2021/01/10 19:54:36;;;;;;;43.57;25.77;;;;;;;5.97;71.40;100818.06;2335490;79;35221;-85
2021/01/10 19:58:12;;;;;;;41.15;25.20;;;;;;;5.97;71.38;100822.36;2299139;83;26215;-83
2021/01/10 20:01:47;;;;;;;43.35;24.30;;;;;;;5.96;71.33;100811.54;2367207;81;25848;-84
2021/01/10 20:05:35;;;;;;;43.08;25.23;;;;;;;5.96;71.30;100812.42;2207811;87;25947;-83
2021/01/10 20:09:12;;;;;;;42.40;24.27;;;;;;;5.94;71.27;100815.73;2212207;86;25970;-83
2021/01/10 20:12:45;;;;;;;44.73;25.62;;;;;;;5.92;71.23;100813.05;2200346;86;26291;-82
2021/01/10 20:16:09;;;;;;;44.77;26.68;;;;;;;5.91;71.20;100813.47;2198573;86;25800;-83
2021/01/10 20:19:47;;;;;;;46.23;28.10;;;;;;;5.91;71.17;100810.88;2168804;86;26057;-83
2021/01/10 20:27:19;;;;;;;47.27;26.77;;;;;;;5.88;71.14;100804.67;2223592;86;25817;-85
2021/01/10 20:31:13;;;;;;;49.18;25.35;;;;;;;5.88;71.13;100807.25;2198766;86;26106;-84
2021/01/10 20:35:24;;;;;;;44.80;26.37;;;;;;;5.87;71.13;100806.37;2188070;85;25965;-83
2021/01/10 20:43:37;;;;;;;46.50;26.48;;;;;;;5.86;71.10;100801.11;2250452;86;26578;-85
2021/01/10 21:16:53;;;;;;;49.75;28.92;;;;;;;5.82;71.05;100803.06;2372590;77;25624;-83
2021/01/10 21:20:57;;;;;;;47.75;28.12;;;;;;;5.81;71.06;100796.13;2211710;87;25806;-87
2021/01/10 21:28:39;;;;;;;52.78;28.42;;;;;;;5.81;71.06;100793.54;2221257;86;26179;-82
2021/01/10 21:32:35;;;;;;;52.75;28.60;;;;;;;5.81;71.09;100796.13;2225304;87;25855;-80
2021/01/10 21:39:55;;;;;;;57.50;31.55;;;;;;;5.81;71.10;100789.66;2413457;79;26525;-79
2021/01/10 21:44:09;;;;;;;51.65;30.30;;;;;;;5.82;71.10;100788.83;2381062;80;25662;-86
2021/01/10 21:47:47;;;;;;;53.13;30.25;;;;;;;5.84;71.12;100791.10;2369797;80;26393;-80
2021/01/10 21:51:43;;;;;;;51.48;29.37;;;;;;;5.83;71.09;100785.02;2368090;80;26111;-87
2021/01/10 22:17:42;;;;;;;47.88;28.23;;;;;;;5.83;71.05;100770.78;2377999;77;26232;-83
2021/01/10 22:28:44;;;;;;;49.70;29.40;;;;;;;5.82;70.98;100768.14;2358094;81;26020;-88
2021/01/10 22:32:06;;;;;;;51.92;29.85;;;;;;;5.81;70.95;100758.20;2340833;81;26238;-91
2021/01/10 22:35:40;;;;;;;61.48;32.03;;;;;;;5.81;70.93;100762.49;2381925;79;25789;-88
2021/01/10 22:42:32;;;;;;;53.02;29.95;;;;;;;5.79;70.89;100752.46;2432418;78;25675;-82
2021/01/10 23:00:33;;;;;;;48.10;28.25;;;;;;;5.80;71.13;100737.41;2442796;77;26086;-82
2021/01/10 23:04:00;;;;;;;49.38;28.62;;;;;;;5.82;70.97;100736.67;2368016;81;25733;-83
2021/01/10 23:07:38;;;;;;;43.70;27.10;;;;;;;5.82;70.97;100742.27;2383369;80;25883;-83
2021/01/10 23:11:01;;;;;;;48.58;28.83;;;;;;;5.80;70.92;100737.00;2344894;81;26075;-82
2021/01/10 23:14:41;;;;;;;44.63;25.37;;;;;;;5.81;70.87;100736.20;2342280;81;25781;-82
2021/01/10 23:18:02;;;;;;;42.60;25.50;;;;;;;5.80;70.82;100732.23;2347102;81;25752;-82
2021/01/10 23:21:33;;;;;;;44.65;25.90;;;;;;;5.81;70.77;100731.44;2333742;81;25844;-81
2021/01/10 23:29:02;;;;;;;37.05;23.47;;;;;;;5.80;70.67;100728.35;2443713;78;25619;-82
2021/01/10 23:32:37;;;;;;;35.78;23.12;;;;;;;5.79;70.57;100723.59;2447172;78;25710;-83
2021/01/10 23:40:03;;;;;;;;;;;;;;;5.75;70.36;100722.97;2442897;78;25781;-83
2021/01/10 23:43:37;;;;;;;32.00;19.82;;;;;;;5.72;70.16;100714.17;2437656;78;25682;-83
2021/01/10 23:50:34;;;;;;;28.38;18.82;;;;;;;5.67;70.07;100721.73;2448696;78;25860;-83
2021/01/10 23:58:05;;;;;;;26.15;16.57;;;;;;;5.63;69.88;100709.43;2392509;81;25936;-84
